sensor_id;sensor_type;location;lat;lon;timestamp;temperature;humidity
6210;DHT22;3138;52.550;13.148;2023-04-15T00:00:15;7.90;99.90
6210;DHT22;3138;52.550;13.148;2023-04-15T00:02:42;8.00;99.90
6210;DHT22;3138;52.550;13.148;2023-04-15T00:05:10;8.00;99.90
6210;DHT22;3138;52.550;13.148;2023-04-15T00:07:36;8.00;99.90
6210;DHT22;3138;52.550;13.148;2023-04-15T00:10:07;8.00;99.90
6210;DHT22;3138;52.550;13.148;2023-04-15T00:12:34;7.90;99.90
6210;DHT22;3138;52.550;13.148;2023-04-15T00:15:01;7.90;99.90
6210;DHT22;3138;52.550;13.148;2023-04-15T00:17:28;7.90;99.90
6210;DHT22;3138;52.550;13.148;2023-04-15T00:19:55;7.90;99.90
6210;DHT22;3138;52.550;13.148;2023-04-15T00:22:24;7.90;99.90
6210;DHT22;3138;52.550;13.148;2023-04-15T00:24:51;7.90;99.90
6210;DHT22;3138;52.550;13.148;2023-04-15T00:27:20;7.90;99.90
6210;DHT22;3138;52.550;13.148;2023-04-15T00:29:46;7.90;99.90
6210;DHT22;3138;52.550;13.148;2023-04-15T00:32:13;7.90;99.90
6210;DHT22;3138;52.550;13.148;2023-04-15T00:34:40;7.90;99.90
6210;DHT22;3138;52.550;13.148;2023-04-15T00:37:08;7.90;99.90
6210;DHT22;3138;52.550;13.148;2023-04-15T00:39:35;7.90;99.90
6210;DHT22;3138;52.550;13.148;2023-04-15T00:42:03;7.90;99.90
6210;DHT22;3138;52.550;13.148;2023-04-15T00:44:31;7.90;99.90
6210;DHT22;3138;52.550;13.148;2023-04-15T00:46:59;7.80;99.90
6210;DHT22;3138;52.550;13.148;2023-04-15T00:49:28;7.80;99.90
6210;DHT22;3138;52.550;13.148;2023-04-15T00:51:55;7.80;99.90
6210;DHT22;3138;52.550;13.148;2023-04-15T00:54:22;7.80;99.90
6210;DHT22;3138;52.550;13.148;2023-04-15T00:56:48;7.90;99.90
6210;DHT22;3138;52.550;13.148;2023-04-15T00:59:16;7.80;99.90
6210;DHT22;3138;52.550;13.148;2023-04-15T01:01:45;7.80;99.90
6210;DHT22;3138;52.550;13.148;2023-04-15T01:04:12;7.80;99.90
6210;DHT22;3138;52.550;13.148;2023-04-15T01:06:40;7.80;99.90
6210;DHT22;3138;52.550;13.148;2023-04-15T01:09:06;7.80;99.90
6210;DHT22;3138;52.550;13.148;2023-04-15T01:11:34;7.80;99.90
6210;DHT22;3138;52.550;13.148;2023-04-15T01:14:01;7.80;99.90
6210;DHT22;3138;52.550;13.148;2023-04-15T01:16:28;7.80;99.90
6210;DHT22;3138;52.550;13.148;2023-04-15T01:18:57;7.80;99.90
6210;DHT22;3138;52.550;13.148;2023-04-15T01:21:24;7.80;99.90
6210;DHT22;3138;52.550;13.148;2023-04-15T01:23:52;7.80;99.90
6210;DHT22;3138;52.550;13.148;2023-04-15T01:26:22;7.80;99.90
6210;DHT22;3138;52.550;13.148;2023-04-15T01:28:49;7.80;99.90
6210;DHT22;3138;52.550;13.148;2023-04-15T01:31:16;7.80;99.90
6210;DHT22;3138;52.550;13.148;2023-04-15T01:33:43;7.80;99.90
6210;DHT22;3138;52.550;13.148;2023-04-15T01:36:10;7.70;99.90
6210;DHT22;3138;52.550;13.148;2023-04-15T01:38:37;7.80;99.90
6210;DHT22;3138;52.550;13.148;2023-04-15T01:41:04;7.70;99.90
6210;DHT22;3138;52.550;13.148;2023-04-15T01:43:33;7.80;99.90
6210;DHT22;3138;52.550;13.148;2023-04-15T01:46:00;7.80;99.90
6210;DHT22;3138;52.550;13.148;2023-04-15T01:48:27;7.70;99.90
6210;DHT22;3138;52.550;13.148;2023-04-15T01:50:54;7.80;99.90
6210;DHT22;3138;52.550;13.148;2023-04-15T01:53:23;7.70;99.90
6210;DHT22;3138;52.550;13.148;2023-04-15T01:55:50;7.70;99.90
6210;DHT22;3138;52.550;13.148;2023-04-15T01:58:17;7.80;99.90
6210;DHT22;3138;52.550;13.148;2023-04-15T02:00:45;7.80;99.90
6210;DHT22;3138;52.550;13.148;2023-04-15T02:03:12;7.80;99.90
6210;DHT22;3138;52.550;13.148;2023-04-15T02:05:39;7.80;99.90
6210;DHT22;3138;52.550;13.148;2023-04-15T02:08:06;7.80;99.90
6210;DHT22;3138;52.550;13.148;2023-04-15T02:10:32;7.80;99.90
6210;DHT22;3138;52.550;13.148;2023-04-15T02:12:59;7.70;99.90
6210;DHT22;3138;52.550;13.148;2023-04-15T02:15:27;7.70;99.90
6210;DHT22;3138;52.550;13.148;2023-04-15T02:17:55;7.80;99.90
6210;DHT22;3138;52.550;13.148;2023-04-15T02:20:23;7.80;99.90
6210;DHT22;3138;52.550;13.148;2023-04-15T02:22:50;7.80;99.90
6210;DHT22;3138;52.550;13.148;2023-04-15T02:25:17;7.80;99.90
6210;DHT22;3138;52.550;13.148;2023-04-15T02:27:45;7.80;99.90
6210;DHT22;3138;52.550;13.148;2023-04-15T02:30:11;7.80;99.90
6210;DHT22;3138;52.550;13.148;2023-04-15T02:32:39;7.80;99.90
6210;DHT22;3138;52.550;13.148;2023-04-15T02:35:09;7.80;99.90
6210;DHT22;3138;52.550;13.148;2023-04-15T02:37:37;7.80;99.90
6210;DHT22;3138;52.550;13.148;2023-04-15T02:40:08;7.70;99.90
6210;DHT22;3138;52.550;13.148;2023-04-15T02:42:36;7.80;99.90
6210;DHT22;3138;52.550;13.148;2023-04-15T02:45:04;7.80;99.90
6210;DHT22;3138;52.550;13.148;2023-04-15T02:47:32;7.80;99.90
6210;DHT22;3138;52.550;13.148;2023-04-15T02:49:59;7.80;99.90
6210;DHT22;3138;52.550;13.148;2023-04-15T02:52:27;7.80;99.90
6210;DHT22;3138;52.550;13.148;2023-04-15T02:54:54;7.80;99.90
6210;DHT22;3138;52.550;13.148;2023-04-15T02:57:25;7.80;99.90
6210;DHT22;3138;52.550;13.148;2023-04-15T02:59:52;7.80;99.90
6210;DHT22;3138;52.550;13.148;2023-04-15T03:02:19;7.80;99.90
6210;DHT22;3138;52.550;13.148;2023-04-15T03:04:45;7.80;99.90
6210;DHT22;3138;52.550;13.148;2023-04-15T03:07:13;7.80;99.90
6210;DHT22;3138;52.550;13.148;2023-04-15T03:09:41;7.80;99.90
6210;DHT22;3138;52.550;13.148;2023-04-15T03:12:09;7.90;99.90
6210;DHT22;3138;52.550;13.148;2023-04-15T03:14:35;7.90;99.90
6210;DHT22;3138;52.550;13.148;2023-04-15T03:17:02;7.90;99.90
6210;DHT22;3138;52.550;13.148;2023-04-15T03:19:29;7.90;99.90
6210;DHT22;3138;52.550;13.148;2023-04-15T03:21:56;7.90;99.90
6210;DHT22;3138;52.550;13.148;2023-04-15T03:24:23;7.90;99.90
6210;DHT22;3138;52.550;13.148;2023-04-15T03:26:51;7.90;99.90
6210;DHT22;3138;52.550;13.148;2023-04-15T03:29:19;7.90;99.90
6210;DHT22;3138;52.550;13.148;2023-04-15T03:31:46;7.90;99.90
6210;DHT22;3138;52.550;13.148;2023-04-15T03:34:13;7.90;99.90
6210;DHT22;3138;52.550;13.148;2023-04-15T03:36:40;7.90;99.90
6210;DHT22;3138;52.550;13.148;2023-04-15T03:39:07;7.90;99.90
6210;DHT22;3138;52.550;13.148;2023-04-15T03:41:34;7.90;99.90
6210;DHT22;3138;52.550;13.148;2023-04-15T03:44:02;8.00;99.90
6210;DHT22;3138;52.550;13.148;2023-04-15T03:46:29;7.90;99.90
6210;DHT22;3138;52.550;13.148;2023-04-15T03:48:55;8.00;99.90
6210;DHT22;3138;52.550;13.148;2023-04-15T03:51:22;7.90;99.90
6210;DHT22;3138;52.550;13.148;2023-04-15T03:53:49;8.00;99.90
6210;DHT22;3138;52.550;13.148;2023-04-15T03:56:16;8.00;99.90
6210;DHT22;3138;52.550;13.148;2023-04-15T03:58:43;8.00;99.90
6210;DHT22;3138;52.550;13.148;2023-04-15T04:01:12;7.90;99.90
6210;DHT22;3138;52.550;13.148;2023-04-15T04:03:38;8.00;99.90
6210;DHT22;3138;52.550;13.148;2023-04-15T04:06:05;8.00;99.90
6210;DHT22;3138;52.550;13.148;2023-04-15T04:08:32;8.00;99.90
6210;DHT22;3138;52.550;13.148;2023-04-15T04:10:59;8.00;99.90
6210;DHT22;3138;52.550;13.148;2023-04-15T04:13:26;8.10;99.90
6210;DHT22;3138;52.550;13.148;2023-04-15T04:15:53;8.10;99.90
6210;DHT22;3138;52.550;13.148;2023-04-15T04:18:21;8.10;99.90
6210;DHT22;3138;52.550;13.148;2023-04-15T04:20:48;8.10;99.90
6210;DHT22;3138;52.550;13.148;2023-04-15T04:23:15;8.10;99.90
6210;DHT22;3138;52.550;13.148;2023-04-15T04:25:42;8.10;99.90
6210;DHT22;3138;52.550;13.148;2023-04-15T04:28:09;8.10;99.90
6210;DHT22;3138;52.550;13.148;2023-04-15T04:30:36;8.10;99.90
6210;DHT22;3138;52.550;13.148;2023-04-15T04:33:03;8.10;99.90
6210;DHT22;3138;52.550;13.148;2023-04-15T04:35:31;8.10;99.90
6210;DHT22;3138;52.550;13.148;2023-04-15T04:37:59;8.10;99.90
6210;DHT22;3138;52.550;13.148;2023-04-15T04:40:26;8.20;99.90
6210;DHT22;3138;52.550;13.148;2023-04-15T04:42:53;8.20;99.90
6210;DHT22;3138;52.550;13.148;2023-04-15T04:45:20;8.20;99.90
6210;DHT22;3138;52.550;13.148;2023-04-15T04:47:47;8.20;99.90
6210;DHT22;3138;52.550;13.148;2023-04-15T04:50:14;8.20;99.90
6210;DHT22;3138;52.550;13.148;2023-04-15T04:52:42;8.20;99.90
6210;DHT22;3138;52.550;13.148;2023-04-15T04:55:09;8.20;99.90
6210;DHT22;3138;52.550;13.148;2023-04-15T04:57:36;8.30;99.90
6210;DHT22;3138;52.550;13.148;2023-04-15T05:00:05;8.30;99.90
6210;DHT22;3138;52.550;13.148;2023-04-15T05:02:33;8.30;99.90
6210;DHT22;3138;52.550;13.148;2023-04-15T05:05:00;8.30;99.90
6210;DHT22;3138;52.550;13.148;2023-04-15T05:07:27;8.20;99.90
6210;DHT22;3138;52.550;13.148;2023-04-15T05:09:55;8.30;99.90
6210;DHT22;3138;52.550;13.148;2023-04-15T05:12:22;8.30;99.90
6210;DHT22;3138;52.550;13.148;2023-04-15T05:14:49;8.30;99.90
6210;DHT22;3138;52.550;13.148;2023-04-15T05:17:16;8.30;99.90
6210;DHT22;3138;52.550;13.148;2023-04-15T05:19:43;8.40;99.90
6210;DHT22;3138;52.550;13.148;2023-04-15T05:22:09;8.40;99.90
6210;DHT22;3138;52.550;13.148;2023-04-15T05:24:36;8.40;99.90
6210;DHT22;3138;52.550;13.148;2023-04-15T05:27:05;8.40;99.90
6210;DHT22;3138;52.550;13.148;2023-04-15T05:29:33;8.40;99.90
6210;DHT22;3138;52.550;13.148;2023-04-15T05:31:59;8.50;99.90
6210;DHT22;3138;52.550;13.148;2023-04-15T05:34:26;8.50;99.90
6210;DHT22;3138;52.550;13.148;2023-04-15T05:36:53;8.50;99.90
6210;DHT22;3138;52.550;13.148;2023-04-15T05:39:20;8.50;99.90
6210;DHT22;3138;52.550;13.148;2023-04-15T05:41:47;8.60;99.90
6210;DHT22;3138;52.550;13.148;2023-04-15T05:44:15;8.60;99.90
6210;DHT22;3138;52.550;13.148;2023-04-15T05:46:42;8.60;99.90
6210;DHT22;3138;52.550;13.148;2023-04-15T05:49:09;8.70;99.90
6210;DHT22;3138;52.550;13.148;2023-04-15T05:51:36;8.70;99.90
6210;DHT22;3138;52.550;13.148;2023-04-15T05:54:03;8.70;99.90
6210;DHT22;3138;52.550;13.148;2023-04-15T05:56:30;8.70;99.90
6210;DHT22;3138;52.550;13.148;2023-04-15T05:58:57;8.80;99.90
6210;DHT22;3138;52.550;13.148;2023-04-15T06:01:25;8.80;99.90
6210;DHT22;3138;52.550;13.148;2023-04-15T06:03:52;8.80;99.90
6210;DHT22;3138;52.550;13.148;2023-04-15T06:06:18;8.80;99.90
6210;DHT22;3138;52.550;13.148;2023-04-15T06:08:45;8.90;99.90
6210;DHT22;3138;52.550;13.148;2023-04-15T06:11:12;9.00;99.90
6210;DHT22;3138;52.550;13.148;2023-04-15T06:13:39;9.00;99.90
6210;DHT22;3138;52.550;13.148;2023-04-15T06:16:06;9.10;99.90
6210;DHT22;3138;52.550;13.148;2023-04-15T06:18:35;9.10;99.90
6210;DHT22;3138;52.550;13.148;2023-04-15T06:21:01;9.20;99.90
6210;DHT22;3138;52.550;13.148;2023-04-15T06:23:28;9.30;99.90
6210;DHT22;3138;52.550;13.148;2023-04-15T06:25:55;9.40;99.90
6210;DHT22;3138;52.550;13.148;2023-04-15T06:28:22;9.60;99.90
6210;DHT22;3138;52.550;13.148;2023-04-15T06:30:49;9.40;99.90
6210;DHT22;3138;52.550;13.148;2023-04-15T06:33:16;9.60;99.90
6210;DHT22;3138;52.550;13.148;2023-04-15T06:35:44;9.60;99.90
6210;DHT22;3138;52.550;13.148;2023-04-15T06:38:11;9.60;99.90
6210;DHT22;3138;52.550;13.148;2023-04-15T06:40:39;9.70;99.90
6210;DHT22;3138;52.550;13.148;2023-04-15T06:43:06;9.80;99.90
6210;DHT22;3138;52.550;13.148;2023-04-15T06:45:33;9.90;99.90
6210;DHT22;3138;52.550;13.148;2023-04-15T06:48:00;9.90;99.90
6210;DHT22;3138;52.550;13.148;2023-04-15T06:50:27;9.90;99.90
6210;DHT22;3138;52.550;13.148;2023-04-15T06:52:55;10.00;99.90
6210;DHT22;3138;52.550;13.148;2023-04-15T06:55:22;10.10;99.90
6210;DHT22;3138;52.550;13.148;2023-04-15T06:57:49;10.20;99.90
6210;DHT22;3138;52.550;13.148;2023-04-15T07:00:16;10.20;99.90
6210;DHT22;3138;52.550;13.148;2023-04-15T07:02:43;10.20;99.90
6210;DHT22;3138;52.550;13.148;2023-04-15T07:05:11;10.30;99.90
6210;DHT22;3138;52.550;13.148;2023-04-15T07:07:37;10.40;99.90
6210;DHT22;3138;52.550;13.148;2023-04-15T07:10:07;10.40;99.90
6210;DHT22;3138;52.550;13.148;2023-04-15T07:12:34;10.60;99.90
6210;DHT22;3138;52.550;13.148;2023-04-15T07:15:01;10.80;99.90
6210;DHT22;3138;52.550;13.148;2023-04-15T07:17:28;10.70;99.90
6210;DHT22;3138;52.550;13.148;2023-04-15T07:19:55;10.80;99.90
6210;DHT22;3138;52.550;13.148;2023-04-15T07:22:21;10.70;99.90
6210;DHT22;3138;52.550;13.148;2023-04-15T07:24:48;10.50;99.90
6210;DHT22;3138;52.550;13.148;2023-04-15T07:27:17;10.40;99.90
6210;DHT22;3138;52.550;13.148;2023-04-15T07:29:43;10.60;99.90
6210;DHT22;3138;52.550;13.148;2023-04-15T07:32:10;10.60;99.90
6210;DHT22;3138;52.550;13.148;2023-04-15T07:34:37;10.70;99.90
6210;DHT22;3138;52.550;13.148;2023-04-15T07:37:04;10.80;99.90
6210;DHT22;3138;52.550;13.148;2023-04-15T07:39:31;10.70;99.90
6210;DHT22;3138;52.550;13.148;2023-04-15T07:41:57;10.70;99.90
6210;DHT22;3138;52.550;13.148;2023-04-15T07:44:26;10.80;99.90
6210;DHT22;3138;52.550;13.148;2023-04-15T07:46:53;10.80;99.90
6210;DHT22;3138;52.550;13.148;2023-04-15T07:49:20;10.80;99.90
6210;DHT22;3138;52.550;13.148;2023-04-15T07:51:47;10.70;99.90
6210;DHT22;3138;52.550;13.148;2023-04-15T07:54:15;10.60;99.90
6210;DHT22;3138;52.550;13.148;2023-04-15T07:56:42;10.50;99.90
6210;DHT22;3138;52.550;13.148;2023-04-15T07:59:09;10.60;99.90
6210;DHT22;3138;52.550;13.148;2023-04-15T08:01:37;10.50;99.90
6210;DHT22;3138;52.550;13.148;2023-04-15T08:04:04;10.50;99.90
6210;DHT22;3138;52.550;13.148;2023-04-15T08:06:31;10.40;99.90
6210;DHT22;3138;52.550;13.148;2023-04-15T08:08:58;10.50;99.90
6210;DHT22;3138;52.550;13.148;2023-04-15T08:11:26;10.60;99.90
6210;DHT22;3138;52.550;13.148;2023-04-15T08:13:53;10.50;99.90
6210;DHT22;3138;52.550;13.148;2023-04-15T08:16:22;10.40;99.90
6210;DHT22;3138;52.550;13.148;2023-04-15T08:18:51;10.40;99.90
6210;DHT22;3138;52.550;13.148;2023-04-15T08:21:19;10.40;99.90
6210;DHT22;3138;52.550;13.148;2023-04-15T08:23:47;10.40;99.90
6210;DHT22;3138;52.550;13.148;2023-04-15T08:26:14;10.40;99.90
6210;DHT22;3138;52.550;13.148;2023-04-15T08:28:45;10.40;99.90
6210;DHT22;3138;52.550;13.148;2023-04-15T08:31:13;10.60;99.90
6210;DHT22;3138;52.550;13.148;2023-04-15T08:33:39;10.50;99.90
6210;DHT22;3138;52.550;13.148;2023-04-15T08:36:08;10.60;99.90
6210;DHT22;3138;52.550;13.148;2023-04-15T08:38:35;10.40;99.90
6210;DHT22;3138;52.550;13.148;2023-04-15T08:41:06;10.40;99.90
6210;DHT22;3138;52.550;13.148;2023-04-15T08:43:34;10.50;99.90
6210;DHT22;3138;52.550;13.148;2023-04-15T08:46:05;10.40;99.90
6210;DHT22;3138;52.550;13.148;2023-04-15T08:48:32;10.50;99.90
6210;DHT22;3138;52.550;13.148;2023-04-15T08:51:00;10.50;90.80
6210;DHT22;3138;52.550;13.148;2023-04-15T08:53:29;10.50;59.00
6210;DHT22;3138;52.550;13.148;2023-04-15T08:55:59;10.40;1.50
6210;DHT22;3138;52.550;13.148;2023-04-15T08:58:30;10.50;1.00
6210;DHT22;3138;52.550;13.148;2023-04-15T09:00:57;10.50;1.00
6210;DHT22;3138;52.550;13.148;2023-04-15T09:03:24;10.50;1.00
6210;DHT22;3138;52.550;13.148;2023-04-15T09:05:52;10.50;1.00
6210;DHT22;3138;52.550;13.148;2023-04-15T09:08:19;10.50;1.00
6210;DHT22;3138;52.550;13.148;2023-04-15T09:10:48;10.50;1.00
6210;DHT22;3138;52.550;13.148;2023-04-15T09:13:15;10.60;1.00
6210;DHT22;3138;52.550;13.148;2023-04-15T09:15:42;10.50;1.00
6210;DHT22;3138;52.550;13.148;2023-04-15T09:18:11;10.40;1.00
6210;DHT22;3138;52.550;13.148;2023-04-15T09:20:39;10.50;1.00
6210;DHT22;3138;52.550;13.148;2023-04-15T09:23:13;10.60;1.00
6210;DHT22;3138;52.550;13.148;2023-04-15T09:25:42;10.70;1.00
6210;DHT22;3138;52.550;13.148;2023-04-15T09:28:10;10.70;1.00
6210;DHT22;3138;52.550;13.148;2023-04-15T09:30:37;10.70;1.00
6210;DHT22;3138;52.550;13.148;2023-04-15T09:33:04;10.70;1.00
6210;DHT22;3138;52.550;13.148;2023-04-15T09:35:33;10.60;99.90
6210;DHT22;3138;52.550;13.148;2023-04-15T09:38:02;10.60;99.90
6210;DHT22;3138;52.550;13.148;2023-04-15T09:40:34;10.70;99.90
6210;DHT22;3138;52.550;13.148;2023-04-15T09:43:02;10.70;99.90
6210;DHT22;3138;52.550;13.148;2023-04-15T09:45:31;10.70;99.90
6210;DHT22;3138;52.550;13.148;2023-04-15T09:47:59;10.70;99.90
6210;DHT22;3138;52.550;13.148;2023-04-15T09:50:27;10.80;99.90
6210;DHT22;3138;52.550;13.148;2023-04-15T09:52:55;10.90;99.90
6210;DHT22;3138;52.550;13.148;2023-04-15T09:55:22;10.80;15.20
6210;DHT22;3138;52.550;13.148;2023-04-15T09:57:49;10.80;1.00
6210;DHT22;3138;52.550;13.148;2023-04-15T10:00:16;10.80;94.80
6210;DHT22;3138;52.550;13.148;2023-04-15T10:02:46;10.80;99.90
6210;DHT22;3138;52.550;13.148;2023-04-15T10:05:14;10.80;99.90
6210;DHT22;3138;52.550;13.148;2023-04-15T10:07:42;10.80;99.90
6210;DHT22;3138;52.550;13.148;2023-04-15T10:10:10;10.80;99.90
6210;DHT22;3138;52.550;13.148;2023-04-15T10:12:40;10.80;99.90
6210;DHT22;3138;52.550;13.148;2023-04-15T10:15:12;10.80;99.90
6210;DHT22;3138;52.550;13.148;2023-04-15T10:17:44;10.70;99.90
6210;DHT22;3138;52.550;13.148;2023-04-15T10:20:11;10.60;99.90
6210;DHT22;3138;52.550;13.148;2023-04-15T10:22:39;10.60;1.00
6210;DHT22;3138;52.550;13.148;2023-04-15T10:25:09;10.60;1.00
6210;DHT22;3138;52.550;13.148;2023-04-15T10:27:37;10.60;1.00
6210;DHT22;3138;52.550;13.148;2023-04-15T10:30:06;10.70;1.00
6210;DHT22;3138;52.550;13.148;2023-04-15T10:32:34;10.60;1.00
6210;DHT22;3138;52.550;13.148;2023-04-15T10:35:02;10.70;1.00
6210;DHT22;3138;52.550;13.148;2023-04-15T10:37:34;10.60;1.00
6210;DHT22;3138;52.550;13.148;2023-04-15T10:40:23;10.60;1.00
6210;DHT22;3138;52.550;13.148;2023-04-15T10:42:50;10.60;1.00
6210;DHT22;3138;52.550;13.148;2023-04-15T10:45:18;10.70;1.00
6210;DHT22;3138;52.550;13.148;2023-04-15T10:47:45;10.70;1.00
6210;DHT22;3138;52.550;13.148;2023-04-15T10:50:13;10.70;1.00
6210;DHT22;3138;52.550;13.148;2023-04-15T10:52:40;10.80;25.80
6210;DHT22;3138;52.550;13.148;2023-04-15T10:55:12;10.80;5.40
6210;DHT22;3138;52.550;13.148;2023-04-15T10:57:41;10.90;29.60
6210;DHT22;3138;52.550;13.148;2023-04-15T11:00:12;11.00;67.40
6210;DHT22;3138;52.550;13.148;2023-04-15T11:02:45;11.00;84.60
6210;DHT22;3138;52.550;13.148;2023-04-15T11:05:15;10.90;88.20
6210;DHT22;3138;52.550;13.148;2023-04-15T11:07:50;10.80;51.80
6210;DHT22;3138;52.550;13.148;2023-04-15T11:10:52;10.70;72.80
6210;DHT22;3138;52.550;13.148;2023-04-15T11:13:26;10.90;99.90
6210;DHT22;3138;52.550;13.148;2023-04-15T11:16:01;11.00;99.90
6210;DHT22;3138;52.550;13.148;2023-04-15T11:18:32;10.90;99.90
6210;DHT22;3138;52.550;13.148;2023-04-15T11:21:02;10.90;99.90
6210;DHT22;3138;52.550;13.148;2023-04-15T11:23:32;10.90;99.90
6210;DHT22;3138;52.550;13.148;2023-04-15T11:26:00;10.90;99.90
6210;DHT22;3138;52.550;13.148;2023-04-15T11:28:29;11.00;99.90
6210;DHT22;3138;52.550;13.148;2023-04-15T11:30:57;10.90;99.90
6210;DHT22;3138;52.550;13.148;2023-04-15T11:33:24;11.00;99.90
6210;DHT22;3138;52.550;13.148;2023-04-15T11:35:52;10.90;99.90
6210;DHT22;3138;52.550;13.148;2023-04-15T11:38:21;10.90;99.90
6210;DHT22;3138;52.550;13.148;2023-04-15T11:40:49;10.80;99.90
6210;DHT22;3138;52.550;13.148;2023-04-15T11:43:18;10.80;99.90
6210;DHT22;3138;52.550;13.148;2023-04-15T11:45:51;10.90;99.90
6210;DHT22;3138;52.550;13.148;2023-04-15T11:48:22;10.90;99.90
6210;DHT22;3138;52.550;13.148;2023-04-15T11:50:53;10.90;99.90
6210;DHT22;3138;52.550;13.148;2023-04-15T11:53:22;11.00;99.90
6210;DHT22;3138;52.550;13.148;2023-04-15T11:55:50;11.00;99.90
6210;DHT22;3138;52.550;13.148;2023-04-15T11:58:19;11.00;99.90
6210;DHT22;3138;52.550;13.148;2023-04-15T12:00:47;11.00;99.90
6210;DHT22;3138;52.550;13.148;2023-04-15T12:03:20;11.00;99.90
6210;DHT22;3138;52.550;13.148;2023-04-15T12:06:14;11.10;99.90
6210;DHT22;3138;52.550;13.148;2023-04-15T12:08:59;11.00;99.90
6210;DHT22;3138;52.550;13.148;2023-04-15T12:11:33;10.90;99.90
6210;DHT22;3138;52.550;13.148;2023-04-15T12:14:06;10.90;99.90
6210;DHT22;3138;52.550;13.148;2023-04-15T12:16:34;10.80;99.90
6210;DHT22;3138;52.550;13.148;2023-04-15T12:19:04;10.90;99.90
6210;DHT22;3138;52.550;13.148;2023-04-15T12:21:36;10.80;99.90
6210;DHT22;3138;52.550;13.148;2023-04-15T12:24:06;10.90;99.90
6210;DHT22;3138;52.550;13.148;2023-04-15T12:26:35;10.80;99.90
6210;DHT22;3138;52.550;13.148;2023-04-15T12:29:04;10.80;99.90
6210;DHT22;3138;52.550;13.148;2023-04-15T12:31:31;10.80;99.90
6210;DHT22;3138;52.550;13.148;2023-04-15T12:33:59;10.80;99.90
6210;DHT22;3138;52.550;13.148;2023-04-15T12:36:26;11.00;99.90
6210;DHT22;3138;52.550;13.148;2023-04-15T12:38:54;11.10;99.90
6210;DHT22;3138;52.550;13.148;2023-04-15T12:41:23;11.20;99.90
6210;DHT22;3138;52.550;13.148;2023-04-15T12:43:50;11.30;99.90
6210;DHT22;3138;52.550;13.148;2023-04-15T12:46:17;11.30;99.90
6210;DHT22;3138;52.550;13.148;2023-04-15T12:48:46;11.40;99.90
6210;DHT22;3138;52.550;13.148;2023-04-15T12:51:16;11.30;99.90
6210;DHT22;3138;52.550;13.148;2023-04-15T12:53:43;11.30;99.90
6210;DHT22;3138;52.550;13.148;2023-04-15T12:56:10;11.40;99.90
6210;DHT22;3138;52.550;13.148;2023-04-15T12:58:38;11.30;99.90
6210;DHT22;3138;52.550;13.148;2023-04-15T13:01:05;11.30;99.90
6210;DHT22;3138;52.550;13.148;2023-04-15T13:03:35;11.30;99.90
6210;DHT22;3138;52.550;13.148;2023-04-15T13:06:02;11.40;99.90
6210;DHT22;3138;52.550;13.148;2023-04-15T13:08:29;11.10;99.90
6210;DHT22;3138;52.550;13.148;2023-04-15T13:10:56;11.10;99.90
6210;DHT22;3138;52.550;13.148;2023-04-15T13:13:23;11.00;99.90
6210;DHT22;3138;52.550;13.148;2023-04-15T13:15:52;11.10;99.90
6210;DHT22;3138;52.550;13.148;2023-04-15T13:18:21;11.10;99.90
6210;DHT22;3138;52.550;13.148;2023-04-15T13:20:49;11.20;99.90
6210;DHT22;3138;52.550;13.148;2023-04-15T13:23:19;11.10;99.90
6210;DHT22;3138;52.550;13.148;2023-04-15T13:25:46;11.00;99.90
6210;DHT22;3138;52.550;13.148;2023-04-15T13:28:13;11.00;99.90
6210;DHT22;3138;52.550;13.148;2023-04-15T13:30:40;11.10;99.90
6210;DHT22;3138;52.550;13.148;2023-04-15T13:33:10;11.10;99.90
6210;DHT22;3138;52.550;13.148;2023-04-15T13:35:37;10.90;99.90
6210;DHT22;3138;52.550;13.148;2023-04-15T13:38:03;11.00;99.90
6210;DHT22;3138;52.550;13.148;2023-04-15T13:40:31;10.90;99.90
6210;DHT22;3138;52.550;13.148;2023-04-15T13:42:57;10.80;99.90
6210;DHT22;3138;52.550;13.148;2023-04-15T13:45:24;10.80;99.90
6210;DHT22;3138;52.550;13.148;2023-04-15T13:47:52;10.80;99.90
6210;DHT22;3138;52.550;13.148;2023-04-15T13:50:20;10.80;99.90
6210;DHT22;3138;52.550;13.148;2023-04-15T13:52:47;10.70;99.90
6210;DHT22;3138;52.550;13.148;2023-04-15T13:55:14;10.70;99.90
6210;DHT22;3138;52.550;13.148;2023-04-15T13:57:41;10.70;99.90
6210;DHT22;3138;52.550;13.148;2023-04-15T14:00:09;10.70;99.90
6210;DHT22;3138;52.550;13.148;2023-04-15T14:02:36;10.70;99.90
6210;DHT22;3138;52.550;13.148;2023-04-15T14:05:03;10.70;99.90
6210;DHT22;3138;52.550;13.148;2023-04-15T14:07:33;10.70;99.90
6210;DHT22;3138;52.550;13.148;2023-04-15T14:10:00;10.70;99.90
6210;DHT22;3138;52.550;13.148;2023-04-15T14:12:27;10.70;99.90
6210;DHT22;3138;52.550;13.148;2023-04-15T14:14:54;10.70;99.90
6210;DHT22;3138;52.550;13.148;2023-04-15T14:17:21;10.70;99.90
6210;DHT22;3138;52.550;13.148;2023-04-15T14:19:48;10.70;99.90
6210;DHT22;3138;52.550;13.148;2023-04-15T14:22:14;10.70;99.90
6210;DHT22;3138;52.550;13.148;2023-04-15T14:24:44;10.70;99.90
6210;DHT22;3138;52.550;13.148;2023-04-15T14:27:13;10.60;99.90
6210;DHT22;3138;52.550;13.148;2023-04-15T14:29:40;10.60;99.90
6210;DHT22;3138;52.550;13.148;2023-04-15T14:32:07;10.60;99.90
6210;DHT22;3138;52.550;13.148;2023-04-15T14:34:34;10.60;99.90
6210;DHT22;3138;52.550;13.148;2023-04-15T14:37:02;10.60;99.90
6210;DHT22;3138;52.550;13.148;2023-04-15T14:39:29;10.50;99.90
6210;DHT22;3138;52.550;13.148;2023-04-15T14:41:57;10.60;99.90
6210;DHT22;3138;52.550;13.148;2023-04-15T14:44:24;10.60;99.90
6210;DHT22;3138;52.550;13.148;2023-04-15T14:46:51;10.60;99.90
6210;DHT22;3138;52.550;13.148;2023-04-15T14:49:19;10.60;99.90
6210;DHT22;3138;52.550;13.148;2023-04-15T14:51:46;10.50;99.90
6210;DHT22;3138;52.550;13.148;2023-04-15T14:54:13;10.60;99.90
6210;DHT22;3138;52.550;13.148;2023-04-15T14:56:40;10.50;99.90
6210;DHT22;3138;52.550;13.148;2023-04-15T14:59:08;10.60;99.90
6210;DHT22;3138;52.550;13.148;2023-04-15T15:01:35;10.60;99.90
6210;DHT22;3138;52.550;13.148;2023-04-15T15:04:01;10.60;99.90
6210;DHT22;3138;52.550;13.148;2023-04-15T15:06:29;10.60;99.90
6210;DHT22;3138;52.550;13.148;2023-04-15T15:08:56;10.60;99.90
6210;DHT22;3138;52.550;13.148;2023-04-15T15:11:22;10.60;99.90
6210;DHT22;3138;52.550;13.148;2023-04-15T15:13:50;10.70;99.90
6210;DHT22;3138;52.550;13.148;2023-04-15T15:16:18;10.70;99.90
6210;DHT22;3138;52.550;13.148;2023-04-15T15:18:45;10.70;99.90
6210;DHT22;3138;52.550;13.148;2023-04-15T15:21:12;10.60;99.90
6210;DHT22;3138;52.550;13.148;2023-04-15T15:23:39;10.60;99.90
6210;DHT22;3138;52.550;13.148;2023-04-15T15:26:06;10.60;99.90
6210;DHT22;3138;52.550;13.148;2023-04-15T15:28:33;10.60;99.90
6210;DHT22;3138;52.550;13.148;2023-04-15T15:31:00;10.60;99.90
6210;DHT22;3138;52.550;13.148;2023-04-15T15:33:31;10.50;99.90
6210;DHT22;3138;52.550;13.148;2023-04-15T15:35:57;10.50;99.90
6210;DHT22;3138;52.550;13.148;2023-04-15T15:38:24;10.60;99.90
6210;DHT22;3138;52.550;13.148;2023-04-15T15:40:51;10.40;99.90
6210;DHT22;3138;52.550;13.148;2023-04-15T15:43:18;10.40;99.90
6210;DHT22;3138;52.550;13.148;2023-04-15T15:45:45;10.50;99.90
6210;DHT22;3138;52.550;13.148;2023-04-15T15:48:12;10.40;99.90
6210;DHT22;3138;52.550;13.148;2023-04-15T15:50:40;10.40;99.90
6210;DHT22;3138;52.550;13.148;2023-04-15T15:53:07;10.50;99.90
6210;DHT22;3138;52.550;13.148;2023-04-15T15:55:35;10.50;99.90
6210;DHT22;3138;52.550;13.148;2023-04-15T15:58:02;10.40;99.90